地図

経路データ

SID SEASON NUMBER BASIN SUBBASIN NAME ISO_TIME NATURE LAT LON WMO_WIND WMO_PRES WMO_AGENCY TRACK_TYPE DIST2LAND LANDFALL IFLAG USA_AGENCY USA_ATCF_ID USA_LAT USA_LON USA_RECORD USA_STATUS USA_WIND USA_PRES USA_SSHS USA_R34_NE USA_R34_SE USA_R34_SW USA_R34_NW USA_R50_NE USA_R50_SE USA_R50_SW USA_R50_NW USA_R64_NE USA_R64_SE USA_R64_SW USA_R64_NW USA_POCI USA_ROCI USA_RMW USA_EYE TOKYO_LAT TOKYO_LON TOKYO_GRADE TOKYO_WIND TOKYO_PRES TOKYO_R50_DIR TOKYO_R50_LONG TOKYO_R50_SHORT TOKYO_R30_DIR TOKYO_R30_LONG TOKYO_R30_SHORT TOKYO_LAND CMA_LAT CMA_LON CMA_CAT CMA_WIND CMA_PRES HKO_LAT HKO_LON HKO_CAT HKO_WIND HKO_PRES NEWDELHI_LAT NEWDELHI_LON NEWDELHI_GRADE NEWDELHI_WIND NEWDELHI_PRES NEWDELHI_CI NEWDELHI_DP NEWDELHI_POCI REUNION_LAT REUNION_LON REUNION_TYPE REUNION_WIND REUNION_PRES REUNION_TNUM REUNION_CI REUNION_RMW REUNION_R34_NE REUNION_R34_SE REUNION_R34_SW REUNION_R34_NW REUNION_R50_NE REUNION_R50_SE REUNION_R50_SW REUNION_R50_NW REUNION_R64_NE REUNION_R64_SE REUNION_R64_SW REUNION_R64_NW BOM_LAT BOM_LON BOM_TYPE BOM_WIND BOM_PRES BOM_TNUM BOM_CI BOM_RMW BOM_R34_NE BOM_R34_SE BOM_R34_SW BOM_R34_NW BOM_R50_NE BOM_R50_SE BOM_R50_SW BOM_R50_NW BOM_R64_NE BOM_R64_SE BOM_R64_SW BOM_R64_NW BOM_ROCI BOM_POCI BOM_EYE BOM_POS_METHOD BOM_PRES_METHOD NADI_LAT NADI_LON NADI_CAT NADI_WIND NADI_PRES WELLINGTON_LAT WELLINGTON_LON WELLINGTON_WIND WELLINGTON_PRES DS824_LAT DS824_LON DS824_STAGE DS824_WIND DS824_PRES TD9636_LAT TD9636_LON TD9636_STAGE TD9636_WIND TD9636_PRES TD9635_LAT TD9635_LON TD9635_WIND TD9635_PRES TD9635_ROCI NEUMANN_LAT NEUMANN_LON NEUMANN_CLASS NEUMANN_WIND NEUMANN_PRES MLC_LAT MLC_LON MLC_CLASS MLC_WIND MLC_PRES USA_GUST BOM_GUST BOM_GUST_PER REUNION_GUST REUNION_GUST_PER USA_SEAHGT USA_SEARAD_NE USA_SEARAD_SE USA_SEARAD_SW USA_SEARAD_NW STORM_SPEED STORM_DIR
1895160N37291 1895 10 NA NA NOT_NAMED 1895-06-08 12:00:00 SS 36.5000 -69.0000 main 570 558 _____________O -1 36.5000 -69.0000 SS 35 8 217
1895160N37291 1895 10 NA NA NOT_NAMED 1895-06-08 15:00:00 SS 36.2001 -69.2878 main 558 530 _____________P -1 36.2001 -69.2878 SS 37 8 219
1895160N37291 1895 10 NA NA NOT_NAMED 1895-06-08 18:00:00 SS 35.9000 -69.6000 main 530 504 _____________O -1 35.9000 -69.6000 SS 40 8 222
1895160N37291 1895 10 NA NA NOT_NAMED 1895-06-08 21:00:00 SS 35.6000 -69.9499 main 504 472 _____________P -1 35.6000 -69.9499 SS 42 8 223
1895160N37291 1895 10 NA NA NOT_NAMED 1895-06-09 00:00:00 TS 35.3000 -70.3000 main 472 449 _____________O -1 35.3000 -70.3000 TS 45 8 222
1895160N37291 1895 10 NA NA NOT_NAMED 1895-06-09 03:00:00 TS 35.0074 -70.6071 main 451 431 _____________P -1 35.0074 -70.6071 TS 45 8 219
1895160N37291 1895 10 NA NA NOT_NAMED 1895-06-09 06:00:00 TS 34.7000 -70.9000 main 434 420 _____________O -1 34.7000 -70.9000 TS 45 8 216
1895160N37291 1895 10 NA NA NOT_NAMED 1895-06-09 09:00:00 TS 34.3349 -71.2001 main 424 413 _____________P -1 34.3349 -71.2001 TS 45 9 215
1895160N37291 1895 10 NA NA NOT_NAMED 1895-06-09 12:00:00 TS 34.0000 -71.5000 main 415 404 _____________O -1 34.0000 -71.5000 TS 45 7 222
1895160N37291 1895 10 NA NA NOT_NAMED 1895-06-09 15:00:00 TS 33.7774 -71.7996 main 404 395 _____________P -1 33.7774 -71.7996 TS 45 6 231
1895160N37291 1895 10 NA NA NOT_NAMED 1895-06-09 18:00:00 TS 33.6000 -72.1000 main 395 388 _____________O -1 33.6000 -72.1000 TS 45 6 233
1895160N37291 1895 10 NA NA NOT_NAMED 1895-06-09 21:00:00 TS 33.3999 -72.3999 main 388 381 _____________P -1 33.3999 -72.3999 TS 45 6 231
1895160N37291 1895 10 NA NA NOT_NAMED 1895-06-10 00:00:00 TS 33.2000 -72.7000 main 381 370 _____________O -1 33.2000 -72.7000 TS 45 6 231
1895160N37291 1895 10 NA NA NOT_NAMED 1895-06-10 03:00:00 TS 32.9924 -72.9924 main 370 362 _____________P -1 32.9924 -72.9924 TS 45 6 232
1895160N37291 1895 10 NA NA NOT_NAMED 1895-06-10 06:00:00 TS 32.8000 -73.3000 main 362 355 _____________O -1 32.8000 -73.3000 TS 45 6 235
1895160N37291 1895 10 NA NA NOT_NAMED 1895-06-10 09:00:00 TS 32.6197 -73.6201 main 355 336 _____________P -1 32.6197 -73.6201 TS 45 7 243
1895160N37291 1895 10 NA NA NOT_NAMED 1895-06-10 12:00:00 TS 32.5000 -74.0000 main 336 312 _____________O -1 32.5000 -74.0000 TS 45 7 259
1895160N37291 1895 10 NA NA NOT_NAMED 1895-06-10 15:00:00 TS 32.4775 -74.4772 main 307 281 _____________P -1 32.4775 -74.4772 TS 45 8 270
1895160N37291 1895 10 NA NA NOT_NAMED 1895-06-10 18:00:00 TS 32.5000 -75.0000 main 281 269 _____________O -1 32.5000 -75.0000 TS 45 9 267
1895160N37291 1895 10 NA NA NOT_NAMED 1895-06-10 21:00:00 TS 32.4250 -75.5161 main 272 242 _____________P -1 32.4250 -75.5161 TS 45 8 270
1895160N37291 1895 10 NA NA NOT_NAMED 1895-06-11 00:00:00 TS 32.5000 -76.0000 main 242 185 _____________O -1 32.5000 -76.0000 TS 45 9 303
1895160N37291 1895 10 NA NA NOT_NAMED 1895-06-11 03:00:00 TS 32.9248 -76.4219 main 185 119 _____________P -1 32.9248 -76.4219 TS 42 12 326
1895160N37291 1895 10 NA NA NOT_NAMED 1895-06-11 06:00:00 TS 33.5000 -76.8000 main 119 62 _____________O -1 33.5000 -76.8000 TS 40 13 332
1895160N37291 1895 10 NA NA NOT_NAMED 1895-06-11 09:00:00 TS 34.0598 -77.1573 main 48 0 _____________P -1 34.0598 -77.1573 TS 37 12 330
1895160N37291 1895 10 NA NA NOT_NAMED 1895-06-11 12:00:00 TS 34.5000 -77.5000 main 0 0 _____________O -1 34.5000 -77.5000 TS 35 8 316
1895160N37291 1895 10 NA NA NOT_NAMED 1895-06-11 15:00:00 TS 34.6599 -77.8508 main 0 0 _____________P -1 34.6599 -77.8508 TS 32 6 289
1895160N37291 1895 10 NA NA NOT_NAMED 1895-06-11 18:00:00 TS 34.7000 -78.2000 main 0 0 _____________O -1 34.7000 -78.2000 TD 30 6 284
1895160N37291 1895 10 NA NA NOT_NAMED 1895-06-11 21:00:00 TS 34.7999 -78.5501 main 0 0 _____________P -1 34.7999 -78.5501 TD 30 6 289
1895160N37291 1895 10 NA NA NOT_NAMED 1895-06-12 00:00:00 TS 34.9000 -78.9000 main 0 0 _____________O -1 34.9000 -78.9000 TD 30 6 289
1895160N37291 1895 10 NA NA NOT_NAMED 1895-06-12 03:00:00 TS 34.9999 -79.2501 main 0 0 _____________P -1 34.9999 -79.2501 TD 27 6 289
1895160N37291 1895 10 NA NA NOT_NAMED 1895-06-12 06:00:00 TS 35.1000 -79.6000 main 0 0 _____________O -1 35.1000 -79.6000 TD 25 6 289
1895160N37291 1895 10 NA NA NOT_NAMED 1895-06-12 09:00:00 TS 35.2002 -79.9498 main 0 0 _____________P -1 35.2002 -79.9498 TD 22 6 289
1895160N37291 1895 10 NA NA NOT_NAMED 1895-06-12 12:00:00 TS 35.3000 -80.3000 main 0 _____________O -1 35.3000 -80.3000 TD 20 6 289

IBTrACS Databaseについて

本データベースは、米国NOAAが公開する1842年以降の世界の熱帯低気圧のベストトラックデータアーカイブInternational Best Track Archive for Climate Stewardship (IBTrACS)を、ウェブで閲覧しやすい形式に変換したものです。

最終更新日:2021-12-03